Rome, Italy
Current Conditions -  °F | °C
As of 4:45 AM on Monday 24 Nov 2014 (Local Time) from LIRA Reporting Station
Few Clouds Few Clouds  
Wind Chill: 50°   Ceiling: Unl
Heat Index: 50°   Visibility: 4mi
Dew Point: 48°   Wind: 0mph
Humidity: 94%   Direction: NA
Pressure: 30.24"   Gusts: NA
Location:  41.9°N, 12.48°E
Report Text: LIRA 240345Z 00000KT 6000 FEW009 10/09 Q1024
Loading
Personal Weather Stations






























Interactive Weather Map New forecast layout! Learn more

10-Day Weather Forecast

Advertisements
Track Severe Weather on mobile